Time;durP1;ratioP1;P1;durP2;ratioP2;P2;SDS_P1;SDS_P2;PMS_P1;PMS_P2;Temp;Humidity;BMP_temperature;BMP_pressure;BME280_temperature;BME280_humidity;BME280_pressure;Samples;Min_cycle;Max_cycle;Signal;HPM_P1;HPM_P2
2020/12/17 00:00:14;;;;;;;14.00;7.35;;;17.70;49.90;;;;;;1034524;28;20014;-74
2020/12/17 00:00:45;;;;;;;16.30;7.95;;;17.70;49.90;;;;;;1039680;28;20041;-74
2020/12/17 00:01:17;;;;;;;11.45;7.38;;;17.60;49.90;;;;;;1040899;28;20017;-76
2020/12/17 00:02:02;;;;;;;14.48;7.57;;;17.70;50.00;;;;;;1041028;28;20071;-76
2020/12/17 00:02:34;;;;;;;14.57;8.13;;;17.60;50.10;;;;;;1039446;28;20018;-76
2020/12/17 00:03:05;;;;;;;14.27;7.82;;;17.60;50.00;;;;;;1038400;28;20109;-73
2020/12/17 00:03:36;;;;;;;14.88;8.10;;;17.60;50.00;;;;;;1040192;28;20036;-73
2020/12/17 00:04:08;;;;;;;16.40;7.95;;;17.60;50.10;;;;;;1040298;28;20041;-73
2020/12/17 00:04:39;;;;;;;17.00;8.20;;;17.60;50.20;;;;;;1039100;28;20014;-73
2020/12/17 00:05:10;;;;;;;13.82;7.75;;;17.60;50.30;;;;;;1033866;28;20014;-73
2020/12/17 00:05:42;;;;;;;15.40;7.63;;;17.60;50.40;;;;;;1030055;28;20046;-73
2020/12/17 00:06:13;;;;;;;16.38;7.68;;;17.60;50.50;;;;;;1028168;28;20019;-73
2020/12/17 00:06:45;;;;;;;13.13;7.60;;;17.60;50.60;;;;;;1030487;28;20014;-73
2020/12/17 00:07:16;;;;;;;13.73;7.72;;;17.50;50.70;;;;;;1031688;28;20022;-73
2020/12/17 00:07:48;;;;;;;13.55;7.97;;;17.50;50.80;;;;;;1032253;28;20026;-73
2020/12/17 00:08:19;;;;;;;14.15;7.60;;;17.50;50.90;;;;;;1035624;28;20101;-73
2020/12/17 00:08:50;;;;;;;16.33;7.57;;;17.50;51.00;;;;;;1035079;28;20114;-73
2020/12/17 00:09:22;;;;;;;14.35;7.70;;;17.50;51.20;;;;;;1037779;28;20049;-73
2020/12/17 00:09:54;;;;;;;13.82;7.55;;;17.50;51.30;;;;;;1037835;28;20018;-73
2020/12/17 00:10:25;;;;;;;13.45;8.20;;;17.50;51.30;;;;;;1039450;28;20474;-73
2020/12/17 00:10:57;;;;;;;14.25;7.90;;;17.50;51.30;;;;;;1039678;28;20014;-73
2020/12/17 00:11:28;;;;;;;14.50;8.02;;;17.50;51.30;;;;;;1036590;28;20103;-73
2020/12/17 00:11:59;;;;;;;14.10;7.75;;;17.50;52.00;;;;;;1036743;28;20022;-73
2020/12/17 00:12:38;;;;;;;14.13;7.75;;;17.50;51.60;;;;;;1036560;28;20026;-73
2020/12/17 00:13:09;;;;;;;13.85;7.50;;;17.50;51.60;;;;;;1040207;28;20522;-73
2020/12/17 00:13:40;;;;;;;13.45;7.47;;;17.50;51.50;;;;;;1038173;28;20029;-73
2020/12/17 00:14:12;;;;;;;11.73;7.10;;;17.50;51.60;;;;;;1039609;28;20034;-73
2020/12/17 00:14:43;;;;;;;13.70;7.40;;;17.50;51.70;;;;;;1033304;28;20106;-74
2020/12/17 00:15:17;;;;;;;12.98;7.20;;;17.50;51.80;;;;;;1033583;28;20067;-73
2020/12/17 00:15:49;;;;;;;14.80;7.47;;;17.50;51.80;;;;;;1029879;28;20026;-73
2020/12/17 00:16:20;;;;;;;13.75;7.35;;;17.50;51.70;;;;;;1034027;28;20022;-72
2020/12/17 00:16:51;;;;;;;16.33;7.80;;;17.50;51.80;;;;;;1040213;28;20032;-73
2020/12/17 00:17:23;;;;;;;13.32;7.07;;;17.50;52.00;;;;;;1038848;28;20065;-73
2020/12/17 00:17:54;;;;;;;15.05;7.65;;;17.50;52.10;;;;;;1036860;28;20367;-73
2020/12/17 00:18:25;;;;;;;15.50;7.75;;;17.50;52.00;;;;;;1040817;28;20425;-73
2020/12/17 00:18:57;;;;;;;17.73;8.10;;;17.50;52.10;;;;;;1037071;28;20042;-73
2020/12/17 00:19:28;;;;;;;14.98;7.72;;;17.50;52.10;;;;;;1037104;28;20025;-73
2020/12/17 00:20:00;;;;;;;14.88;7.75;;;17.50;52.10;;;;;;1040411;28;20025;-73
2020/12/17 00:20:31;;;;;;;14.23;7.88;;;17.50;52.10;;;;;;1039546;28;20503;-73
2020/12/17 00:21:02;;;;;;;14.23;7.82;;;17.40;52.10;;;;;;1040337;28;20017;-73
2020/12/17 00:21:34;;;;;;;15.50;7.63;;;17.40;51.90;;;;;;1039656;28;20017;-73
2020/12/17 00:22:05;;;;;;;15.90;7.65;;;17.50;52.00;;;;;;1039788;28;20033;-73
2020/12/17 00:22:41;;;;;;;15.32;7.50;;;17.40;52.00;;;;;;1039530;28;20383;-73
2020/12/17 00:23:13;;;;;;;15.48;7.47;;;17.40;52.00;;;;;;1039607;28;20036;-73
2020/12/17 00:23:44;;;;;;;11.90;7.13;;;17.50;52.10;;;;;;1039351;28;20065;-73
2020/12/17 00:24:15;;;;;;;14.77;7.40;;;17.40;52.10;;;;;;1035824;28;20026;-73
2020/12/17 00:24:47;;;;;;;16.05;7.20;;;17.40;52.10;;;;;;1036899;28;20018;-73
2020/12/17 00:25:19;;;;;;;13.90;7.53;;;17.40;52.10;;;;;;1039388;28;20380;-73
2020/12/17 00:25:50;;;;;;;15.38;6.90;;;17.40;52.10;;;;;;1039965;28;20068;-73
2020/12/17 00:26:25;;;;;;;15.40;7.13;;;17.40;52.20;;;;;;1039254;28;20029;-73
2020/12/17 00:26:56;;;;;;;11.38;6.55;;;17.40;52.20;;;;;;1038382;28;20036;-73
2020/12/17 00:27:27;;;;;;;10.48;6.05;;;17.40;52.40;;;;;;1037078;28;20045;-73
2020/12/17 00:28:00;;;;;;;14.18;6.53;;;17.40;52.30;;;;;;1038853;28;20057;-73
2020/12/17 00:28:31;;;;;;;14.18;6.53;;;17.40;52.10;;;;;;1037717;28;20037;-73
2020/12/17 00:29:02;;;;;;;13.13;6.70;;;17.40;52.10;;;;;;1037920;28;20104;-73
2020/12/17 00:29:34;;;;;;;14.10;6.63;;;17.30;52.00;;;;;;1036538;28;20387;-73
2020/12/17 00:30:11;;;;;;;11.07;6.05;;;17.30;52.10;;;;;;1035669;28;20025;-73
2020/12/17 00:30:42;;;;;;;12.60;6.35;;;17.30;52.20;;;;;;1034729;28;20038;-73
2020/12/17 00:31:17;;;;;;;13.00;6.15;;;17.30;52.20;;;;;;1038789;28;20029;-72
2020/12/17 00:31:52;;;;;;;14.45;6.00;;;17.30;52.40;;;;;;1038430;28;20076;-73
2020/12/17 00:32:23;;;;;;;16.08;6.20;;;17.30;52.30;;;;;;1037772;28;20040;-73
2020/12/17 00:32:55;;;;;;;15.00;5.82;;;17.40;52.30;;;;;;1040017;28;20029;-73
2020/12/17 00:33:26;;;;;;;12.65;5.88;;;17.30;52.30;;;;;;1040388;28;20021;-73
2020/12/17 00:33:58;;;;;;;13.93;5.90;;;17.30;52.30;;;;;;1039653;28;20024;-73
2020/12/17 00:34:29;;;;;;;11.93;5.90;;;17.30;52.50;;;;;;1038544;28;20029;-73
2020/12/17 00:35:00;;;;;;;10.75;5.72;;;17.30;52.40;;;;;;1038658;28;20035;-73
2020/12/17 00:35:32;;;;;;;12.27;5.97;;;17.30;52.40;;;;;;1037655;28;20044;-73
2020/12/17 00:36:03;;;;;;;15.20;5.78;;;17.30;52.40;;;;;;1039058;28;20443;-73
2020/12/17 00:36:34;;;;;;;11.90;5.90;;;17.30;52.50;;;;;;1038198;28;20024;-73
2020/12/17 00:37:06;;;;;;;13.45;5.97;;;17.30;52.60;;;;;;1039094;28;20443;-73
2020/12/17 00:37:38;;;;;;;14.10;6.70;;;17.30;52.60;;;;;;1037504;28;20021;-72
2020/12/17 00:38:10;;;;;;;14.20;6.00;;;17.20;52.50;;;;;;1037928;28;20090;-73
2020/12/17 00:38:41;;;;;;;15.93;6.38;;;17.20;52.50;;;;;;1038666;28;20101;-73
2020/12/17 00:39:13;;;;;;;18.98;6.70;;;17.20;52.40;;;;;;1040138;28;20028;-73
2020/12/17 00:39:45;;;;;;;16.60;6.25;;;17.20;51.80;;;;;;1040689;28;20025;-73
2020/12/17 00:40:17;;;;;;;23.30;6.93;;;17.20;51.60;;;;;;1040138;28;20033;-73
2020/12/17 00:40:48;;;;;;;19.92;7.10;;;17.20;51.60;;;;;;1040056;28;20041;-73
2020/12/17 00:41:19;;;;;;;21.73;6.72;;;17.10;51.30;;;;;;1039971;28;20063;-73
2020/12/17 00:41:51;;;;;;;23.10;6.75;;;17.10;51.20;;;;;;1036714;28;20065;-73
2020/12/17 00:42:22;;;;;;;23.50;6.90;;;17.10;51.30;;;;;;1040458;28;20379;-73
2020/12/17 00:42:54;;;;;;;24.85;7.25;;;17.10;51.20;;;;;;1038939;28;20099;-73
2020/12/17 00:43:25;;;;;;;18.75;6.65;;;17.10;51.00;;;;;;1038722;28;20029;-72
2020/12/17 00:43:57;;;;;;;22.30;7.28;;;17.00;50.90;;;;;;1036786;28;20056;-73
2020/12/17 00:44:28;;;;;;;24.92;6.53;;;17.00;50.90;;;;;;1038569;28;20017;-72
2020/12/17 00:45:00;;;;;;;24.30;6.97;;;17.00;51.00;;;;;;1036229;28;20467;-71
2020/12/17 00:45:31;;;;;;;20.23;6.50;;;17.00;51.10;;;;;;1037515;28;20033;-71
2020/12/17 00:46:03;;;;;;;26.50;6.80;;;17.00;51.10;;;;;;1033545;28;20050;-71
2020/12/17 00:46:34;;;;;;;16.83;6.78;;;17.00;51.10;;;;;;1035871;28;20022;-71
2020/12/17 00:47:05;;;;;;;21.38;6.57;;;17.00;51.10;;;;;;1034814;28;20079;-71
2020/12/17 00:47:37;;;;;;;23.98;7.32;;;16.90;51.20;;;;;;1032558;28;20018;-71
2020/12/17 00:48:08;;;;;;;23.10;6.57;;;16.90;51.30;;;;;;1036668;28;20053;-71
2020/12/17 00:48:40;;;;;;;24.10;6.65;;;16.90;51.20;;;;;;1037380;28;20444;-71
2020/12/17 00:49:11;;;;;;;23.77;6.97;;;16.90;51.20;;;;;;1036707;28;20108;-71
2020/12/17 00:49:44;;;;;;;21.73;6.50;;;16.90;51.30;;;;;;1040240;28;20014;-71
2020/12/17 00:50:15;;;;;;;26.70;6.60;;;16.90;51.40;;;;;;1042384;28;20026;-70
2020/12/17 00:50:46;;;;;;;21.48;6.40;;;16.90;51.70;;;;;;1039194;28;20116;-71
2020/12/17 00:51:19;;;;;;;21.52;6.50;;;16.90;50.90;;;;;;1037689;28;20097;-71
2020/12/17 00:51:50;;;;;;;19.20;6.53;;;16.90;51.00;;;;;;1037015;28;20092;-71
2020/12/17 00:52:22;;;;;;;16.50;5.43;;;16.90;51.00;;;;;;1034209;28;20074;-71
2020/12/17 00:52:53;;;;;;;17.90;6.20;;;16.90;51.00;;;;;;1040098;28;20105;-71
2020/12/17 00:53:25;;;;;;;19.02;6.15;;;16.90;50.90;;;;;;1035293;28;20455;-71
2020/12/17 00:53:56;;;;;;;19.30;5.72;;;16.90;51.00;;;;;;1036464;28;20093;-71
2020/12/17 00:54:29;;;;;;;18.73;5.97;;;16.90;50.90;;;;;;1038306;28;20071;-71
2020/12/17 00:55:00;;;;;;;21.77;5.97;;;16.80;50.80;;;;;;1036423;28;20032;-71
2020/12/17 00:55:31;;;;;;;21.05;5.65;;;16.90;50.80;;;;;;1037971;28;20022;-71
2020/12/17 00:56:05;;;;;;;19.70;5.90;;;16.80;50.80;;;;;;1039962;28;20009;-71
2020/12/17 00:56:37;;;;;;;18.65;5.75;;;16.70;50.70;;;;;;1038821;28;20459;-71
2020/12/17 00:57:08;;;;;;;17.80;5.95;;;16.70;50.80;;;;;;1037276;28;20026;-73
2020/12/17 00:57:40;;;;;;;15.15;5.35;;;16.70;51.00;;;;;;1036971;28;20068;-72
2020/12/17 00:58:11;;;;;;;19.00;5.53;;;16.70;50.90;;;;;;1037066;28;20028;-72
2020/12/17 00:58:42;;;;;;;16.73;5.60;;;16.70;50.90;;;;;;1039309;28;20017;-73
2020/12/17 00:59:14;;;;;;;21.50;6.22;;;16.60;50.80;;;;;;1035261;28;20088;-72
2020/12/17 00:59:45;;;;;;;16.05;5.63;;;16.70;50.80;;;;;;1038992;28;20025;-72
2020/12/17 01:00:17;;;;;;;19.15;5.75;;;16.60;50.80;;;;;;1039071;28;20408;-73
2020/12/17 01:00:48;;;;;;;17.00;5.88;;;16.60;50.80;;;;;;1038682;28;20009;-73
2020/12/17 01:01:20;;;;;;;15.32;5.30;;;16.60;51.00;;;;;;1038168;28;20104;-73
2020/12/17 01:01:51;;;;;;;16.38;5.65;;;16.60;51.10;;;;;;1034334;28;20045;-73
2020/12/17 01:02:22;;;;;;;20.00;6.00;;;16.60;51.20;;;;;;1035093;28;20054;-73
2020/12/17 01:02:54;;;;;;;17.20;5.78;;;16.60;51.20;;;;;;1035397;28;20506;-73
2020/12/17 01:03:25;;;;;;;16.92;5.72;;;16.60;51.20;;;;;;1033841;28;20109;-73
2020/12/17 01:03:57;;;;;;;17.67;5.80;;;16.50;51.30;;;;;;1034032;28;20010;-73
2020/12/17 01:04:28;;;;;;;21.67;5.85;;;16.50;51.40;;;;;;1040322;28;20477;-73
2020/12/17 01:04:59;;;;;;;13.40;5.13;;;16.50;51.60;;;;;;1038175;28;20091;-73
2020/12/17 01:05:31;;;;;;;18.83;6.00;;;16.50;51.60;;;;;;1039109;28;20021;-73
2020/12/17 01:06:06;;;;;;;18.42;6.05;;;16.50;51.60;;;;;;1039056;28;20376;-73
2020/12/17 01:06:38;;;;;;;18.63;5.72;;;16.50;51.60;;;;;;1040117;28;20018;-73
2020/12/17 01:07:10;;;;;;;16.67;5.60;;;16.50;51.60;;;;;;1037765;28;20086;-72
2020/12/17 01:07:41;;;;;;;14.57;4.93;;;16.40;51.60;;;;;;1038966;28;20039;-72
2020/12/17 01:08:13;;;;;;;17.05;5.40;;;16.40;51.60;;;;;;1039291;28;20075;-72
2020/12/17 01:08:44;;;;;;;18.55;5.88;;;16.40;51.60;;;;;;1037286;28;20025;-73
2020/12/17 01:09:15;;;;;;;15.32;5.20;;;16.40;51.60;;;;;;1040188;28;20009;-72
2020/12/17 01:09:47;;;;;;;18.35;5.60;;;16.40;51.80;;;;;;1040267;28;20045;-72
2020/12/17 01:10:19;;;;;;;13.82;5.00;;;16.40;51.90;;;;;;1039675;28;20019;-72
2020/12/17 01:10:50;;;;;;;15.52;5.47;;;16.40;52.10;;;;;;1035877;28;20025;-71
2020/12/17 01:11:28;;;;;;;14.05;4.82;;;16.40;52.30;;;;;;1036637;28;20443;-73
2020/12/17 01:12:00;;;;;;;19.25;5.40;;;16.30;52.30;;;;;;1039890;28;20017;-73
2020/12/17 01:12:32;;;;;;;17.70;5.05;;;16.30;52.40;;;;;;1040997;28;20602;-73
2020/12/17 01:13:03;;;;;;;17.42;5.38;;;16.30;52.60;;;;;;1039570;28;20036;-73
2020/12/17 01:13:35;;;;;;;15.93;5.03;;;16.30;52.70;;;;;;1039598;28;20495;-73
2020/12/17 01:14:06;;;;;;;14.70;4.95;;;16.30;52.80;;;;;;1039602;28;20927;-73
2020/12/17 01:14:38;;;;;;;14.18;5.00;;;16.30;52.90;;;;;;1040321;28;20022;-73
2020/12/17 01:15:09;;;;;;;13.18;5.38;;;16.30;53.00;;;;;;1037096;28;20112;-71
2020/12/17 01:15:41;;;;;;;17.25;5.00;;;16.30;53.00;;;;;;1035531;28;20026;-71
2020/12/17 01:16:12;;;;;;;22.48;5.85;;;16.30;53.10;;;;;;1036991;28;20037;-73
2020/12/17 01:16:50;;;;;;;12.88;5.00;;;16.30;53.10;;;;;;1037912;28;20391;-74
2020/12/17 01:17:21;;;;;;;18.40;5.35;;;16.30;53.00;;;;;;1037660;28;20018;-73
2020/12/17 01:17:53;;;;;;;11.82;4.78;;;16.30;53.00;;;;;;1037669;28;20364;-73
2020/12/17 01:18:24;;;;;;;14.77;4.95;;;16.30;53.00;;;;;;1037475;28;20452;-73
2020/12/17 01:18:56;;;;;;;15.25;4.80;;;16.40;53.10;;;;;;1039397;28;20017;-73
2020/12/17 01:19:28;;;;;;;12.38;4.57;;;16.40;53.00;;;;;;1039916;28;20018;-73
2020/12/17 01:19:59;;;;;;;14.75;4.95;;;16.40;53.00;;;;;;1040243;28;20018;-73
2020/12/17 01:20:30;;;;;;;14.32;4.70;;;16.40;52.90;;;;;;1039556;28;20068;-73
2020/12/17 01:21:04;;;;;;;14.60;4.88;;;16.40;52.80;;;;;;1039063;28;20018;-72
2020/12/17 01:21:36;;;;;;;17.05;5.47;;;16.40;53.00;;;;;;1037553;28;20021;-72
2020/12/17 01:22:07;;;;;;;17.08;5.10;;;16.40;53.10;;;;;;1036421;28;20014;-72
2020/12/17 01:22:39;;;;;;;11.02;4.57;;;16.30;53.10;;;;;;1039522;28;20017;-71
2020/12/17 01:23:10;;;;;;;14.60;5.15;;;16.30;53.10;;;;;;1039119;28;20093;-71
2020/12/17 01:23:42;;;;;;;14.27;5.00;;;16.30;53.20;;;;;;1041057;28;20014;-72
2020/12/17 01:24:13;;;;;;;14.93;5.40;;;16.30;53.20;;;;;;1040651;28;20112;-72
2020/12/17 01:24:44;;;;;;;11.85;4.45;;;16.30;53.10;;;;;;1041113;28;20032;-73
2020/12/17 01:25:16;;;;;;;17.17;5.25;;;16.30;53.20;;;;;;1040924;28;20434;-71
2020/12/17 01:25:47;;;;;;;12.00;4.47;;;16.30;53.50;;;;;;1039815;28;20017;-72
2020/12/17 01:26:19;;;;;;;12.80;4.70;;;16.30;53.60;;;;;;1038770;28;20478;-71
2020/12/17 01:26:53;;;;;;;11.48;4.43;;;16.30;53.60;;;;;;1039441;28;20079;-72
2020/12/17 01:27:28;;;;;;;12.93;4.72;;;16.30;53.40;;;;;;1037958;28;20029;-73
2020/12/17 01:27:59;;;;;;;24.80;5.18;;;16.30;53.60;;;;;;1037894;28;20014;-72
2020/12/17 01:28:30;;;;;;;16.00;4.97;;;16.30;53.80;;;;;;1037718;28;20029;-73
2020/12/17 01:29:02;;;;;;;16.52;5.20;;;16.20;53.60;;;;;;1039949;28;20021;-72
2020/12/17 01:29:33;;;;;;;12.60;4.65;;;16.20;53.60;;;;;;1038736;28;20026;-72
2020/12/17 01:30:04;;;;;;;13.45;4.68;;;16.20;53.50;;;;;;1040898;28;20072;-72
2020/12/17 01:30:36;;;;;;;17.52;5.03;;;16.10;53.30;;;;;;1039699;28;20446;-72
2020/12/17 01:31:08;;;;;;;17.35;5.15;;;16.20;53.30;;;;;;1041055;28;20111;-72
2020/12/17 01:31:39;;;;;;;11.85;4.57;;;16.20;53.40;;;;;;1038429;28;20116;-72
2020/12/17 01:32:11;;;;;;;13.48;4.70;;;16.10;53.50;;;;;;1039195;28;20533;-72
2020/12/17 01:32:42;;;;;;;16.48;4.60;;;16.10;53.50;;;;;;1035429;28;20021;-71
2020/12/17 01:33:13;;;;;;;16.77;4.95;;;16.10;53.60;;;;;;1035786;28;20486;-73
2020/12/17 01:33:45;;;;;;;12.55;4.63;;;16.10;53.60;;;;;;1036133;28;20061;-74
2020/12/17 01:34:17;;;;;;;15.48;4.88;;;16.10;53.70;;;;;;1041082;28;20025;-73
2020/12/17 01:34:49;;;;;;;13.38;4.40;;;16.10;53.70;;;;;;1038252;28;20018;-73
2020/12/17 01:35:21;;;;;;;13.18;5.00;;;16.10;53.80;;;;;;1039191;28;20030;-73
2020/12/17 01:35:52;;;;;;;14.70;4.68;;;16.10;53.70;;;;;;1037922;28;20025;-72
2020/12/17 01:36:24;;;;;;;17.73;4.72;;;16.10;53.90;;;;;;1037902;28;20025;-71
2020/12/17 01:36:55;;;;;;;15.45;4.93;;;16.10;53.90;;;;;;1039677;28;20438;-73
2020/12/17 01:37:27;;;;;;;11.52;4.30;;;16.10;53.80;;;;;;1038549;28;20018;-73
2020/12/17 01:37:58;;;;;;;11.35;4.82;;;16.10;53.70;;;;;;1038577;28;20463;-71
2020/12/17 01:38:30;;;;;;;11.98;4.75;;;16.20;53.70;;;;;;1038528;28;20061;-73
2020/12/17 01:39:01;;;;;;;14.90;4.63;;;16.20;53.70;;;;;;1034714;28;20025;-73
2020/12/17 01:39:32;;;;;;;14.48;4.75;;;16.20;53.70;;;;;;1035300;28;20036;-73
2020/12/17 01:40:04;;;;;;;12.82;4.70;;;16.20;53.80;;;;;;1037369;28;20530;-73
2020/12/17 01:40:35;;;;;;;15.23;4.60;;;16.20;53.80;;;;;;1040336;28;20029;-73
2020/12/17 01:41:11;;;;;;;14.30;5.05;;;16.20;53.90;;;;;;1039920;28;20040;-73
2020/12/17 01:41:42;;;;;;;16.80;5.07;;;16.20;54.00;;;;;;1039433;28;20032;-73
2020/12/17 01:42:14;;;;;;;12.73;4.47;;;16.20;54.10;;;;;;1032883;28;20333;-73
2020/12/17 01:42:45;;;;;;;19.55;5.25;;;16.20;54.10;;;;;;1034834;28;20022;-73
2020/12/17 01:43:16;;;;;;;13.38;5.13;;;16.20;54.10;;;;;;1034434;28;20708;-73
2020/12/17 01:43:48;;;;;;;16.60;4.97;;;16.10;54.10;;;;;;1035297;28;20065;-72
2020/12/17 01:44:19;;;;;;;15.63;4.72;;;16.20;54.40;;;;;;1036319;28;20055;-73
2020/12/17 01:44:50;;;;;;;16.88;5.03;;;16.20;54.40;;;;;;1031240;28;20022;-73
2020/12/17 01:45:22;;;;;;;11.98;4.60;;;16.20;54.50;;;;;;1026990;28;20109;-73
2020/12/17 01:45:53;;;;;;;12.98;4.82;;;16.10;54.60;;;;;;1031031;28;20045;-73
2020/12/17 01:46:25;;;;;;;13.63;4.70;;;16.10;54.70;;;;;;1034541;28;20037;-73
2020/12/17 01:46:56;;;;;;;15.65;5.15;;;16.10;54.80;;;;;;1037892;28;20108;-74
2020/12/17 01:47:38;;;;;;;17.95;5.30;;;16.10;54.90;;;;;;1038723;28;20034;-73
2020/12/17 01:48:11;;;;;;;12.10;4.63;;;16.10;54.90;;;;;;1038878;28;20462;-72
2020/12/17 01:48:43;;;;;;;14.85;4.85;;;16.10;55.00;;;;;;1037078;28;20029;-72
2020/12/17 01:49:22;;;;;;;15.02;4.97;;;16.10;55.10;;;;;;1040105;28;20025;-73
2020/12/17 01:49:53;;;;;;;11.93;4.72;;;16.00;55.80;;;;;;1040418;28;20022;-72
2020/12/17 01:50:25;;;;;;;18.63;4.65;;;16.00;55.20;;;;;;1037833;28;20026;-72
2020/12/17 01:50:56;;;;;;;14.20;4.70;;;16.00;55.30;;;;;;1038957;28;20459;-73
2020/12/17 01:51:28;;;;;;;17.00;4.95;;;16.00;55.40;;;;;;1041178;28;20030;-73
2020/12/17 01:52:00;;;;;;;14.52;5.03;;;16.00;55.40;;;;;;1040896;28;20056;-72
2020/12/17 01:52:31;;;;;;;15.95;5.15;;;16.00;55.60;;;;;;1038849;28;20026;-73
2020/12/17 01:53:02;;;;;;;12.25;4.70;;;16.00;55.50;;;;;;1039318;28;20021;-71
2020/12/17 01:53:39;;;;;;;13.15;4.43;;;16.00;55.50;;;;;;1034916;28;20456;-73
2020/12/17 01:54:11;;;;;;;12.38;4.70;;;16.00;55.70;;;;;;1039120;28;20025;-72
2020/12/17 01:54:54;;;;;;;12.02;4.38;;;16.00;55.50;;;;;;1035328;28;20064;-72
2020/12/17 01:55:29;;;;;;;13.02;4.38;;;16.00;55.60;;;;;;1039359;28;20067;-73
2020/12/17 01:56:03;;;;;;;15.77;4.50;;;16.00;55.60;;;;;;1040022;28;20009;-72
2020/12/17 01:56:35;;;;;;;13.00;4.60;;;16.00;55.60;;;;;;1039227;28;20018;-73
2020/12/17 01:57:11;;;;;;;12.68;4.35;;;16.00;55.70;;;;;;1037439;28;20006;-72
2020/12/17 01:57:45;;;;;;;13.00;4.80;;;16.00;55.80;;;;;;1040003;28;20109;-72
2020/12/17 01:58:24;;;;;;;14.25;5.15;;;16.00;55.90;;;;;;1040980;28;20017;-72
2020/12/17 01:59:15;;;;;;;13.82;4.50;;;16.00;56.00;;;;;;1044122;28;20533;-73
2020/12/17 01:59:50;;;;;;;12.07;4.00;;;15.90;56.50;;;;;;1039671;28;20045;-72
2020/12/17 02:00:22;;;;;;;13.15;4.53;;;15.90;56.00;;;;;;1038965;28;20017;-72
2020/12/17 02:01:13;;;;;;;11.38;4.28;;;15.90;56.10;;;;;;1038946;28;20071;-72
2020/12/17 02:01:48;;;;;;;13.43;4.63;;;15.90;56.30;;;;;;1036917;28;20021;-72
2020/12/17 02:02:20;;;;;;;12.73;4.20;;;15.90;56.20;;;;;;1037327;28;20060;-72
2020/12/17 02:02:51;;;;;;;11.45;4.50;;;15.90;56.30;;;;;;1038842;28;20053;-73
2020/12/17 02:03:23;;;;;;;10.82;4.70;;;15.90;56.30;;;;;;1037170;28;20010;-71
2020/12/17 02:03:54;;;;;;;12.35;4.30;;;15.90;56.30;;;;;;1034781;28;20432;-72
2020/12/17 02:04:26;;;;;;;12.30;4.45;;;15.90;56.90;;;;;;1038850;28;20391;-72
2020/12/17 02:05:00;;;;;;;12.05;4.10;;;15.90;56.30;;;;;;1040326;28;20030;-71
2020/12/17 02:05:32;;;;;;;11.80;4.30;;;16.00;56.40;;;;;;1038824;28;20053;-71
2020/12/17 02:06:03;;;;;;;12.50;4.03;;;16.00;56.40;;;;;;1037579;28;20026;-72
2020/12/17 02:06:35;;;;;;;11.35;4.47;;;16.00;56.50;;;;;;1036385;28;20164;-72
2020/12/17 02:07:07;;;;;;;12.05;4.25;;;16.00;56.60;;;;;;1035599;28;20018;-72
2020/12/17 02:07:38;;;;;;;14.70;4.60;;;16.00;56.70;;;;;;1032359;28;20499;-73
2020/12/17 02:08:13;;;;;;;13.25;4.47;;;16.00;56.90;;;;;;1032699;28;20099;-72
2020/12/17 02:08:48;;;;;;;12.23;4.38;;;16.00;56.70;;;;;;1037155;28;20153;-73
2020/12/17 02:09:21;;;;;;;13.75;4.65;;;16.00;56.70;;;;;;1040148;28;20013;-72
2020/12/17 02:09:53;;;;;;;16.30;4.30;;;16.10;56.70;;;;;;1042743;28;20460;-72
2020/12/17 02:10:25;;;;;;;11.15;4.20;;;16.00;56.70;;;;;;1040536;28;20048;-72
2020/12/17 02:10:56;;;;;;;11.20;4.43;;;16.10;56.80;;;;;;1038200;28;20467;-72
2020/12/17 02:11:28;;;;;;;12.15;4.18;;;16.10;56.90;;;;;;1038950;28;20054;-72
2020/12/17 02:12:00;;;;;;;14.48;4.65;;;16.10;57.20;;;;;;1038583;28;20140;-73
2020/12/17 02:12:47;;;;;;;15.32;4.60;;;16.10;57.30;;;;;;1038321;28;20032;-72
2020/12/17 02:13:35;;;;;;;14.95;4.70;;;16.10;57.10;;;;;;1038951;28;20030;-73
2020/12/17 02:14:07;;;;;;;12.38;4.40;;;16.10;57.00;;;;;;1040395;28;20459;-73
2020/12/17 02:14:38;;;;;;;16.08;4.93;;;16.10;57.00;;;;;;1040740;28;20414;-72
2020/12/17 02:15:10;;;;;;;10.73;4.30;;;16.10;57.40;;;;;;1038214;28;20017;-72
2020/12/17 02:15:43;;;;;;;12.23;4.40;;;16.10;57.50;;;;;;1036570;28;20021;-73
2020/12/17 02:16:16;;;;;;;12.15;4.45;;;16.10;57.50;;;;;;1034891;28;20029;-72
2020/12/17 02:16:48;;;;;;;9.30;4.40;;;16.10;57.50;;;;;;1035999;28;20029;-72
2020/12/17 02:17:19;;;;;;;10.80;4.57;;;16.10;57.40;;;;;;1038399;28;20084;-72
2020/12/17 02:17:50;;;;;;;12.40;4.63;;;16.10;57.40;;;;;;1040613;28;20030;-72
2020/12/17 02:18:22;;;;;;;14.60;5.22;;;16.10;57.30;;;;;;1039035;28;20545;-72
2020/12/17 02:18:53;;;;;;;12.82;4.45;;;16.10;57.30;;;;;;1034654;28;20112;-73
2020/12/17 02:19:25;;;;;;;14.95;4.63;;;16.20;57.30;;;;;;1036992;28;20017;-73
2020/12/17 02:19:56;;;;;;;10.90;4.78;;;16.20;57.10;;;;;;1034921;28;20022;-72
2020/12/17 02:20:27;;;;;;;11.15;5.00;;;16.20;56.90;;;;;;1034937;28;20109;-73
2020/12/17 02:21:00;;;;;;;15.13;6.53;;;16.10;56.90;;;;;;1037970;28;20032;-73
2020/12/17 02:21:31;;;;;;;17.05;7.28;;;16.20;56.90;;;;;;1034387;28;20168;-72
2020/12/17 02:22:03;;;;;;;13.25;5.68;;;16.20;56.70;;;;;;1035633;28;20022;-73
2020/12/17 02:22:35;;;;;;;19.42;8.93;;;16.20;56.40;;;;;;1032199;28;20065;-73
2020/12/17 02:23:07;;;;;;;18.77;10.35;;;16.10;56.40;;;;;;1028162;28;20026;-73
2020/12/17 02:23:39;;;;;;;17.65;7.30;;;16.10;56.40;;;;;;1026507;28;20066;-72
2020/12/17 02:24:11;;;;;;;16.92;6.82;;;16.20;56.70;;;;;;1030367;28;20475;-72
2020/12/17 02:24:42;;;;;;;14.27;5.55;;;16.20;56.60;;;;;;1036029;28;20033;-73
2020/12/17 02:25:15;;;;;;;10.52;4.63;;;16.20;56.50;;;;;;1037280;28;20482;-72
2020/12/17 02:25:48;;;;;;;12.07;4.88;;;16.20;56.40;;;;;;1038709;28;20029;-72
2020/12/17 02:26:19;;;;;;;11.65;4.80;;;16.20;56.40;;;;;;1036656;28;20105;-72
2020/12/17 02:26:51;;;;;;;11.40;4.82;;;16.20;56.30;;;;;;1034925;28;20026;-72
2020/12/17 02:27:23;;;;;;;14.15;5.22;;;16.20;56.20;;;;;;1035095;28;20025;-73
2020/12/17 02:27:54;;;;;;;14.15;5.15;;;16.20;56.20;;;;;;1036064;28;20439;-73
2020/12/17 02:28:26;;;;;;;15.77;5.60;;;16.20;56.10;;;;;;1035359;28;20452;-72
2020/12/17 02:28:57;;;;;;;13.82;5.03;;;16.20;56.10;;;;;;1038029;28;20030;-73
2020/12/17 02:29:29;;;;;;;16.90;5.57;;;16.20;56.10;;;;;;1036869;28;20040;-73
2020/12/17 02:30:00;;;;;;;15.25;5.15;;;16.20;56.10;;;;;;1037729;28;20030;-72
2020/12/17 02:30:31;;;;;;;13.95;5.20;;;16.20;56.10;;;;;;1040644;28;20109;-72
2020/12/17 02:31:03;;;;;;;11.93;5.03;;;16.20;56.10;;;;;;1040425;28;20014;-72
2020/12/17 02:31:36;;;;;;;11.18;5.10;;;16.20;56.30;;;;;;1039190;28;20427;-72
2020/12/17 02:32:07;;;;;;;14.27;5.28;;;16.20;56.40;;;;;;1040310;28;20220;-73
2020/12/17 02:32:39;;;;;;;15.18;5.53;;;16.20;56.60;;;;;;1040808;28;20036;-73
2020/12/17 02:33:11;;;;;;;15.45;5.55;;;16.30;56.30;;;;;;1040200;28;20028;-72
2020/12/17 02:33:43;;;;;;;15.43;5.32;;;16.20;56.20;;;;;;1040788;28;20084;-72
2020/12/17 02:34:14;;;;;;;12.60;5.25;;;16.20;56.30;;;;;;1040406;28;20403;-72
2020/12/17 02:34:46;;;;;;;12.77;4.53;;;16.20;56.40;;;;;;1039893;28;20017;-72
2020/12/17 02:35:17;;;;;;;13.25;5.10;;;16.20;56.60;;;;;;1040030;28;20024;-72
2020/12/17 02:35:49;;;;;;;10.85;5.20;;;16.20;56.50;;;;;;1038709;28;20058;-72
2020/12/17 02:36:21;;;;;;;13.60;5.68;;;16.20;56.60;;;;;;1038885;28;20096;-73
2020/12/17 02:36:52;;;;;;;16.08;6.00;;;16.20;56.60;;;;;;1039764;28;20043;-72
2020/12/17 02:37:24;;;;;;;16.85;7.93;;;16.20;56.70;;;;;;1036411;28;20014;-72
2020/12/17 02:37:55;;;;;;;16.15;7.88;;;16.20;56.70;;;;;;1034866;28;20057;-72
2020/12/17 02:38:27;;;;;;;15.85;7.60;;;16.20;56.80;;;;;;1034338;28;20101;-72
2020/12/17 02:38:59;;;;;;;16.10;7.72;;;16.20;56.80;;;;;;1036150;28;20080;-72
2020/12/17 02:39:33;;;;;;;17.38;7.13;;;16.20;56.80;;;;;;1038520;28;20025;-72
2020/12/17 02:40:05;;;;;;;14.77;6.82;;;16.20;56.80;;;;;;1036647;28;20111;-72
2020/12/17 02:40:37;;;;;;;15.88;6.07;;;16.20;56.80;;;;;;1032697;28;20026;-73
2020/12/17 02:41:08;;;;;;;14.25;5.68;;;16.20;56.90;;;;;;1034420;28;20011;-72
2020/12/17 02:41:40;;;;;;;15.50;5.50;;;16.10;56.90;;;;;;1037434;28;20142;-72
2020/12/17 02:42:11;;;;;;;14.00;5.15;;;16.10;57.00;;;;;;1040610;28;20423;-72
2020/12/17 02:42:43;;;;;;;10.80;4.65;;;16.10;57.00;;;;;;1040040;28;20010;-72
2020/12/17 02:43:14;;;;;;;13.50;4.47;;;16.00;56.90;;;;;;1034585;28;20010;-72
2020/12/17 02:43:45;;;;;;;9.65;4.32;;;16.00;57.10;;;;;;1034594;28;20018;-72
2020/12/17 02:44:17;;;;;;;13.50;5.13;;;16.10;57.20;;;;;;1034347;28;20032;-73
2020/12/17 02:44:48;;;;;;;13.52;4.90;;;16.10;57.30;;;;;;1036872;28;20436;-72
2020/12/17 02:45:22;;;;;;;12.10;4.97;;;16.10;57.40;;;;;;1037610;28;20028;-73